Time;durP1;ratioP1;P1;durP2;ratioP2;P2;SDS_P1;SDS_P2;PMS_P1;PMS_P2;Temp;Humidity;BMP_temperature;BMP_pressure;BME280_temperature;BME280_humidity;BME280_pressure;Samples;Min_cycle;Max_cycle;Signal;HPM_P1;HPM_P2
2021/06/06 00:01:17;;;;;;;16.73;7.83;;;;;;;13.59;72.53;99923.55;1722409;83;21153;-84
2021/06/06 00:03:47;;;;;;;10.95;6.53;;;;;;;13.57;72.75;99917.95;1722623;83;21063;-83
2021/06/06 00:06:18;;;;;;;15.15;6.87;;;;;;;13.54;72.50;99919.45;1722361;83;21447;-84
2021/06/06 00:08:45;;;;;;;14.28;6.62;;;;;;;13.51;72.63;99916.98;1722287;83;21052;-83
2021/06/06 00:11:25;;;;;;;11.18;5.80;;;;;;;13.51;73.13;99916.98;1722007;83;21103;-79
2021/06/06 00:13:53;;;;;;;11.12;6.35;;;;;;;13.49;74.18;99919.69;1722214;83;21035;-80
2021/06/06 00:16:32;;;;;;;8.88;4.45;;;;;;;13.50;74.06;99918.73;1722427;83;21124;-81
2021/06/06 00:18:59;;;;;;;11.00;6.65;;;;;;;13.47;74.51;99916.27;1721984;82;21122;-79
2021/06/06 00:21:27;;;;;;;12.43;7.85;;;;;;;13.43;73.46;99913.39;1722851;82;21562;-87
2021/06/06 00:23:56;;;;;;;14.30;7.90;;;;;;;13.41;73.85;99915.25;1723247;82;21018;-91
2021/06/06 00:26:24;;;;;;;13.72;7.58;;;;;;;13.38;73.94;99907.49;1723464;83;21052;-91
2021/06/06 00:28:51;;;;;;;11.65;7.05;;;;;;;13.32;74.11;99907.80;1723934;83;21032;-90
2021/06/06 00:31:19;;;;;;;13.90;7.17;;;;;;;13.28;74.23;99912.41;1734468;82;21598;-89
2021/06/06 00:33:46;;;;;;;12.88;6.70;;;;;;;13.22;74.22;99902.95;1740181;82;22081;-88
2021/06/06 00:36:14;;;;;;;12.70;6.35;;;;;;;13.20;74.38;99913.22;1739512;81;21104;-90
2021/06/06 00:39:56;;;;;;;11.63;6.00;;;;;;;13.21;75.39;99912.31;1806729;78;23102;-90
2021/06/06 00:42:23;;;;;;;14.23;6.50;;;;;;;13.15;75.79;99913.94;1767725;79;21785;-88
2021/06/06 00:44:51;;;;;;;15.93;6.90;;;;;;;13.11;75.55;99914.58;1734345;80;21767;-89
2021/06/06 00:47:18;;;;;;;11.22;6.00;;;;;;;13.10;75.70;99912.84;1747239;80;20970;-90
2021/06/06 00:49:46;;;;;;;11.80;5.87;;;;;;;13.10;75.60;99912.84;1743436;80;21124;-90
2021/06/06 00:52:15;;;;;;;15.32;5.83;;;;;;;13.10;75.69;99910.20;1726401;82;21153;-88
2021/06/06 00:54:45;;;;;;;12.98;5.87;;;;;;;13.12;75.67;99910.14;1712742;83;20942;-87
2021/06/06 00:57:16;;;;;;;;;;;;;;;13.10;75.45;99904.91;1731000;82;21786;-88
2021/06/06 00:59:50;;;;;;;13.20;6.42;;;;;;;13.11;75.52;99909.28;1691847;82;20124;-89
2021/06/06 01:02:17;;;;;;;14.23;7.08;;;;;;;13.10;75.38;99912.84;1717371;82;21048;-87
2021/06/06 01:04:45;;;;;;;11.00;5.97;;;;;;;13.11;75.33;99911.05;1709652;82;21572;-88
2021/06/06 01:07:13;;;;;;;9.30;5.53;;;;;;;13.13;76.82;99910.03;1729456;82;21083;-86
2021/06/06 01:09:42;;;;;;;11.78;5.90;;;;;;;13.14;76.63;99902.51;1717123;82;21546;-82
2021/06/06 01:12:29;;;;;;;11.55;6.03;;;;;;;13.17;76.58;99900.17;1667786;83;21104;-82
2021/06/06 01:15:16;;;;;;;12.75;6.35;;;;;;;13.19;76.32;99902.27;1688664;79;20898;-76
2021/06/06 01:18:15;;;;;;;12.47;5.95;;;;;;;13.17;75.50;99902.34;1697377;83;21079;-76
2021/06/06 01:21:00;;;;;;;11.45;6.33;;;;;;;13.14;75.56;99897.70;1700884;83;21131;-75
2021/06/06 01:23:54;;;;;;;13.93;6.42;;;;;;;13.12;75.85;99903.05;1679021;84;21594;-76
2021/06/06 01:26:28;;;;;;;13.53;6.50;;;;;;;13.10;76.12;99899.63;1667187;85;21123;-75
2021/06/06 01:29:25;;;;;;;9.10;5.72;;;;;;;13.10;76.02;99896.13;1641608;85;21111;-76
2021/06/06 01:31:55;;;;;;;18.52;6.17;;;;;;;13.10;76.02;99896.98;1651121;82;21096;-82
2021/06/06 01:34:26;;;;;;;13.70;6.33;;;;;;;13.07;75.99;99894.50;1670608;85;21525;-82
2021/06/06 01:37:05;;;;;;;18.25;6.80;;;;;;;13.08;75.65;99894.03;1689720;83;21277;-84
2021/06/06 01:39:38;;;;;;;18.27;6.62;;;;;;;13.05;75.98;99896.84;1698859;83;21091;-82
2021/06/06 01:42:23;;;;;;;14.70;6.62;;;;;;;13.02;76.32;99895.19;1692619;83;21529;-83
2021/06/06 01:44:56;;;;;;;14.18;6.15;;;;;;;13.02;76.76;99896.50;1674175;80;21634;31
2021/06/06 01:47:26;;;;;;;10.58;6.00;;;;;;;13.02;77.15;99900.47;1642912;85;21130;-77
2021/06/06 01:50:01;;;;;;;14.90;6.00;;;;;;;13.02;77.40;99899.14;1643353;86;21607;-79
2021/06/06 01:52:32;;;;;;;12.23;6.35;;;;;;;13.03;77.65;99900.88;1640835;87;21110;-77
2021/06/06 01:55:03;;;;;;;13.43;5.67;;;;;;;13.03;78.32;99907.48;1660783;85;21401;-78
2021/06/06 01:57:32;;;;;;;12.33;5.97;;;;;;;13.03;79.08;99908.80;1609181;86;21110;-77
2021/06/06 02:00:01;;;;;;;12.75;5.95;;;;;;;13.03;79.43;99915.41;1666824;82;21134;-85
2021/06/06 02:02:30;;;;;;;11.63;5.60;;;;;;;13.01;79.13;99915.95;1709571;83;21107;-83
2021/06/06 02:04:59;;;;;;;10.38;5.72;;;;;;;13.02;78.54;99924.26;1695067;82;21567;-81
2021/06/06 02:07:31;;;;;;;15.03;5.42;;;;;;;13.04;78.31;99914.94;1710182;82;21109;-83
2021/06/06 02:10:08;;;;;;;13.13;5.67;;;;;;;13.09;78.52;99919.08;1715532;83;21049;-79
2021/06/06 02:12:40;;;;;;;11.33;5.53;;;;;;;13.15;78.84;99920.07;1761534;80;21069;-80
2021/06/06 02:15:12;;;;;;;9.37;5.10;;;;;;;13.22;80.27;99914.00;1750737;81;21178;-81
2021/06/06 02:17:41;;;;;;;11.90;5.17;;;;;;;13.28;79.60;99918.17;1743264;81;21011;-81
2021/06/06 02:20:14;;;;;;;13.83;5.47;;;;;;;13.34;79.30;99923.13;1750551;80;20978;-82
2021/06/06 02:22:42;;;;;;;10.58;4.42;;;;;;;13.40;80.60;99914.88;1711075;82;21045;-81
2021/06/06 02:25:14;;;;;;;10.25;5.95;;;;;;;13.44;80.69;99913.80;1729664;82;21060;-83
2021/06/06 02:28:02;;;;;;;10.68;5.17;;;;;;;13.48;81.42;99917.99;1735159;81;21802;-81
2021/06/06 02:30:56;;;;;;;7.58;5.40;;;;;;;13.49;81.78;99914.88;1748969;80;21081;-79
2021/06/06 02:33:46;;;;;;;11.85;5.10;;;;;;;13.49;82.19;99909.11;1715042;81;21050;-80
2021/06/06 02:36:22;;;;;;;9.98;5.33;;;;;;;13.46;82.53;99902.67;1731477;82;21580;-79
2021/06/06 02:39:13;;;;;;;8.48;5.30;;;;;;;13.42;83.58;99895.82;1706061;83;21050;-78
2021/06/06 02:41:49;;;;;;;8.90;5.65;;;;;;;13.41;83.12;99890.12;1705995;83;21151;-79
2021/06/06 02:44:26;;;;;;;8.35;5.22;;;;;;;13.39;83.43;99877.48;1729369;81;22173;-80
2021/06/06 02:46:55;;;;;;;7.33;5.00;;;;;;;13.38;85.17;99886.33;1673558;82;21077;-85
2021/06/06 02:49:29;;;;;;;12.33;5.50;;;;;;;13.37;84.94;99893.89;1690179;83;21116;-81
2021/06/06 02:52:03;;;;;;;9.68;5.28;;;;;;;13.37;85.44;99893.42;1688509;84;21610;-80
2021/06/06 02:54:40;;;;;;;10.90;5.15;;;;;;;13.37;85.42;99895.22;1683725;84;22020;-81
2021/06/06 02:57:14;;;;;;;13.50;5.15;;;;;;;13.37;85.45;99900.50;1695308;83;21041;-81
2021/06/06 02:59:55;;;;;;;11.10;4.25;;;;;;;13.37;85.77;99904.47;1653553;85;21584;-81
2021/06/06 03:02:30;;;;;;;13.80;4.97;;;;;;;13.40;86.26;99909.59;1752560;80;21013;-82
2021/06/06 03:04:59;;;;;;;9.03;4.97;;;;;;;13.37;86.09;99903.15;1752259;81;21067;-85
2021/06/06 03:07:36;;;;;;;10.60;5.28;;;;;;;13.39;86.08;99910.06;1761270;81;21122;-83
2021/06/06 03:10:06;;;;;;;8.48;5.15;;;;;;;13.38;85.98;99904.38;1758825;81;21597;-84
2021/06/06 03:12:36;;;;;;;11.45;6.03;;;;;;;13.37;86.34;99909.28;1721474;82;21626;-87
2021/06/06 03:15:07;;;;;;;8.80;5.47;;;;;;;13.40;87.35;99909.59;1716488;83;21568;-85
2021/06/06 03:17:39;;;;;;;10.13;5.45;;;;;;;13.39;87.28;99911.86;1716585;83;21096;-81
2021/06/06 03:20:14;;;;;;;11.33;5.12;;;;;;;13.36;86.99;99908.03;1748961;81;21476;-81
2021/06/06 03:22:43;;;;;;;8.93;5.20;;;;;;;13.39;87.74;99908.74;1755276;81;21086;-83
2021/06/06 03:25:26;;;;;;;8.20;5.47;;;;;;;13.41;87.78;99916.58;1764477;81;21086;-84
2021/06/06 03:27:54;;;;;;;14.05;4.78;;;;;;;13.41;87.66;99913.93;1756295;81;21637;-85
2021/06/06 03:30:36;;;;;;;9.40;5.55;;;;;;;13.41;87.54;99909.96;1766441;81;22213;-84
2021/06/06 03:33:19;;;;;;;13.15;5.53;;;;;;;13.47;87.60;99910.97;1756503;81;21262;-84
2021/06/06 03:35:47;;;;;;;7.20;4.58;;;;;;;13.50;87.74;99910.80;1766539;80;21036;-81
2021/06/06 03:38:16;;;;;;;9.65;5.08;;;;;;;13.53;86.76;99909.34;1762396;81;21122;-82
2021/06/06 03:40:45;;;;;;;11.80;5.42;;;;;;;13.59;85.87;99901.06;1761858;81;21597;-80
2021/06/06 03:43:18;;;;;;;6.87;4.17;;;;;;;13.66;85.84;99902.06;1750795;81;21042;-82
2021/06/06 03:45:47;;;;;;;11.78;5.50;;;;;;;13.74;85.80;99903.38;1748204;81;21048;-81
2021/06/06 03:48:14;;;;;;;8.48;4.83;;;;;;;13.83;86.32;99907.32;1724224;82;21409;-87
2021/06/06 03:50:42;;;;;;;7.97;4.53;;;;;;;13.90;86.20;99907.38;1736639;82;21024;-85
2021/06/06 03:53:11;;;;;;;12.90;5.37;;;;;;;13.96;86.03;99907.02;1736668;82;21059;-86
2021/06/06 03:55:40;;;;;;;10.18;5.03;;;;;;;14.04;86.20;99905.30;1736725;82;21683;-84
2021/06/06 03:58:08;;;;;;;11.22;5.45;;;;;;;14.13;86.36;99914.53;1736177;82;22158;-83
2021/06/06 04:00:43;;;;;;;11.70;5.75;;;;;;;14.18;87.38;99917.77;1734580;82;20985;-85
2021/06/06 04:03:11;;;;;;;11.78;5.15;;;;;;;14.21;87.88;99912.30;1732529;82;20997;-87
2021/06/06 04:05:45;;;;;;;12.00;5.92;;;;;;;14.25;87.71;99915.17;1729524;82;21060;-86
2021/06/06 04:08:14;;;;;;;12.35;5.83;;;;;;;14.31;87.66;99912.63;1740446;82;21514;-86
2021/06/06 04:10:42;;;;;;;5.55;4.28;;;;;;;14.39;87.59;99911.27;1731030;82;21175;-82
2021/06/06 04:13:11;;;;;;;12.78;6.15;;;;;;;14.46;87.43;99912.63;1734965;82;20952;-86
2021/06/06 04:15:39;;;;;;;15.98;6.20;;;;;;;14.57;87.27;99911.21;1720916;82;20976;-81
2021/06/06 04:18:14;;;;;;;7.55;5.42;;;;;;;14.63;86.67;99913.05;1749957;81;21195;-77
2021/06/06 04:20:45;;;;;;;11.45;5.80;;;;;;;14.70;86.52;99916.20;1725753;82;21645;-77
2021/06/06 04:23:14;;;;;;;13.83;4.50;;;;;;;14.76;86.81;99918.48;1717453;82;21055;-77
2021/06/06 04:25:42;;;;;;;10.58;5.55;;;;;;;14.81;86.36;99915.08;1709982;82;21118;-78
2021/06/06 04:28:11;;;;;;;11.22;5.28;;;;;;;14.86;85.71;99911.72;1735533;82;21050;-78
2021/06/06 04:30:38;;;;;;;9.20;4.20;;;;;;;14.90;85.76;99918.52;1733194;82;21078;-79
2021/06/06 04:33:08;;;;;;;15.60;6.05;;;;;;;14.98;85.81;99915.45;1718051;82;21171;-77
2021/06/06 04:35:36;;;;;;;18.87;5.87;;;;;;;15.05;85.94;99918.11;1731652;82;21156;-81
2021/06/06 04:38:05;;;;;;;9.73;5.85;;;;;;;15.10;85.98;99913.86;1726979;82;21133;-85
2021/06/06 04:40:35;;;;;;;16.67;7.60;;;;;;;15.15;86.05;99912.27;1737136;82;21065;-78
2021/06/06 04:43:02;;;;;;;8.68;4.97;;;;;;;15.20;86.19;99912.36;1727432;82;21069;-85
2021/06/06 04:45:31;;;;;;;10.32;6.12;;;;;;;15.30;86.39;99909.55;1730775;81;21043;-84
2021/06/06 04:48:29;;;;;;;10.58;5.55;;;;;;;15.40;86.28;99912.98;1767993;81;21123;-83
2021/06/06 04:50:58;;;;;;;6.50;4.65;;;;;;;15.48;86.23;99912.02;1745926;81;21059;-86
2021/06/06 04:53:27;;;;;;;9.33;6.08;;;;;;;15.58;86.29;99922.48;1732682;82;21050;-82
2021/06/06 04:55:56;;;;;;;14.70;6.28;;;;;;;15.67;86.84;99915.75;1724309;82;21592;-84
2021/06/06 04:58:28;;;;;;;12.88;6.20;;;;;;;15.77;87.05;99917.39;1732171;82;21121;-85
2021/06/06 05:00:56;;;;;;;12.33;5.90;;;;;;;15.85;86.69;99915.09;1728196;81;21118;-82
2021/06/06 05:03:26;;;;;;;6.50;4.83;;;;;;;15.90;86.63;99914.36;1733294;81;21016;-82
2021/06/06 05:05:54;;;;;;;9.70;5.87;;;;;;;15.97;86.90;99915.68;1725158;81;21101;-83
2021/06/06 05:08:22;;;;;;;8.83;5.20;;;;;;;16.03;86.60;99913.95;1719885;82;21062;-82
2021/06/06 05:10:51;;;;;;;8.90;4.95;;;;;;;16.09;86.05;99913.56;1716205;81;21570;-85
2021/06/06 05:13:19;;;;;;;9.60;5.40;;;;;;;16.20;86.45;99916.03;1740456;81;21099;-84
2021/06/06 05:15:48;;;;;;;11.43;4.50;;;;;;;16.29;86.03;99911.46;1721577;82;21670;-83
2021/06/06 05:18:17;;;;;;;13.05;4.35;;;;;;;16.40;85.21;99908.94;1702547;82;21045;-85
2021/06/06 05:20:47;;;;;;;10.43;4.45;;;;;;;16.51;83.32;99906.44;1732218;81;21103;-83
2021/06/06 05:23:18;;;;;;;9.13;3.95;;;;;;;16.62;81.54;99907.56;1729629;81;21008;-83
2021/06/06 05:25:46;;;;;;;7.92;4.00;;;;;;;16.68;80.15;99909.80;1703987;82;26752;-82
2021/06/06 05:28:18;;;;;;;4.47;3.33;;;;;;;16.78;78.19;99910.91;1726799;82;21069;-83
2021/06/06 05:30:45;;;;;;;8.85;4.70;;;;;;;16.85;76.84;99912.23;1735158;81;21051;-86
2021/06/06 05:33:13;;;;;;;9.40;4.83;;;;;;;16.95;77.40;99907.99;1730941;81;21036;-84
2021/06/06 05:35:39;;;;;;;6.45;4.28;;;;;;;17.03;77.16;99911.97;1737383;82;21014;-83
2021/06/06 05:38:07;;;;;;;8.58;4.25;;;;;;;17.10;77.60;99910.59;1736852;82;21079;-83
2021/06/06 05:40:35;;;;;;;6.35;4.00;;;;;;;17.19;76.83;99907.31;1734844;82;21009;-85
2021/06/06 05:43:03;;;;;;;6.67;3.67;;;;;;;17.28;76.68;99906.69;1723138;82;21043;-82
2021/06/06 05:45:30;;;;;;;12.50;4.30;;;;;;;17.36;77.23;99904.33;1720931;82;21008;-83
2021/06/06 05:47:57;;;;;;;6.58;3.72;;;;;;;17.46;76.88;99907.23;1735260;82;21039;-86
2021/06/06 05:50:29;;;;;;;10.65;4.12;;;;;;;17.50;76.63;99902.53;1726981;82;21055;-85
2021/06/06 05:52:58;;;;;;;4.15;3.45;;;;;;;17.55;76.92;99909.27;1683512;82;21286;-82
2021/06/06 05:55:25;;;;;;;10.10;4.47;;;;;;;17.63;77.14;99907.38;1722786;82;21083;-80
2021/06/06 05:57:51;;;;;;;16.70;4.85;;;;;;;17.69;76.88;99908.30;1730587;82;21569;-84
2021/06/06 06:00:24;;;;;;;15.30;4.70;;;;;;;17.76;76.25;99903.36;1731502;82;21063;-83
2021/06/06 06:02:51;;;;;;;9.80;3.92;;;;;;;17.81;75.68;99907.45;1727273;82;21534;-85
2021/06/06 06:05:19;;;;;;;7.40;4.03;;;;;;;17.83;75.28;99903.36;1725051;82;21140;-81
2021/06/06 06:07:47;;;;;;;4.62;3.42;;;;;;;17.87;74.51;99907.97;1736990;81;21051;-84
2021/06/06 06:10:18;;;;;;;6.72;3.40;;;;;;;17.91;74.41;99904.14;1735615;82;21088;-83
2021/06/06 06:12:45;;;;;;;9.45;3.50;;;;;;;17.91;73.48;99904.14;1722604;82;21065;-85
2021/06/06 06:15:15;;;;;;;8.48;3.47;;;;;;;17.90;73.38;99915.73;1734188;82;21680;-86
2021/06/06 06:17:42;;;;;;;10.45;3.65;;;;;;;17.79;73.42;99913.33;1734339;82;21056;-84
2021/06/06 06:20:11;;;;;;;11.80;3.65;;;;;;;17.72;73.38;99906.73;1719512;82;21050;-84
2021/06/06 06:22:38;;;;;;;9.68;3.80;;;;;;;17.64;74.43;99907.74;1732313;82;21083;-85
2021/06/06 06:25:06;;;;;;;14.10;3.67;;;;;;;17.58;75.09;99914.84;1733566;82;21052;-85
2021/06/06 06:27:33;;;;;;;8.08;3.00;;;;;;;17.53;75.03;99920.95;1717254;81;21893;-84
2021/06/06 06:30:15;;;;;;;11.05;3.40;;;;;;;17.39;74.67;99913.91;1721601;82;21055;-83
2021/06/06 06:32:42;;;;;;;8.55;3.12;;;;;;;17.28;74.79;99913.34;1727160;81;21080;-85
2021/06/06 06:35:09;;;;;;;11.35;3.87;;;;;;;17.15;74.52;99916.45;1725962;81;21067;-84
2021/06/06 06:37:37;;;;;;;8.28;3.30;;;;;;;17.04;75.02;99916.33;1735861;81;21122;-85
2021/06/06 06:40:06;;;;;;;11.08;3.80;;;;;;;16.95;75.39;99918.63;1727068;81;21024;-85
2021/06/06 06:42:33;;;;;;;12.70;4.35;;;;;;;16.89;76.09;99919.06;1741323;81;21069;-86
2021/06/06 06:45:00;;;;;;;11.38;4.25;;;;;;;16.86;77.55;99917.07;1721852;82;20940;-86
2021/06/06 06:47:30;;;;;;;12.40;3.62;;;;;;;16.86;78.54;99917.91;1730782;81;21507;-83
2021/06/06 06:49:57;;;;;;;5.37;3.55;;;;;;;16.84;79.00;99917.64;1739239;81;21662;-85
2021/06/06 06:52:28;;;;;;;7.50;3.40;;;;;;;16.82;80.08;99921.76;1737078;81;21139;-86
2021/06/06 06:54:55;;;;;;;8.90;3.98;;;;;;;16.84;80.25;99914.53;1739665;81;21520;-86
2021/06/06 06:57:22;;;;;;;9.08;3.83;;;;;;;16.88;80.49;99918.67;1744718;81;21023;-86
2021/06/06 06:59:49;;;;;;;7.45;3.42;;;;;;;16.90;80.78;99915.92;1731743;81;21137;-86
2021/06/06 07:02:17;;;;;;;8.43;3.90;;;;;;;16.88;80.33;99916.01;1723614;82;21050;-82
2021/06/06 07:04:47;;;;;;;11.38;3.58;;;;;;;16.87;80.36;99918.31;1730582;81;21032;-84
2021/06/06 07:07:14;;;;;;;6.92;2.87;;;;;;;16.81;78.29;99921.36;1738832;81;21025;-84
2021/06/06 07:09:41;;;;;;;6.90;3.40;;;;;;;16.69;75.69;99916.83;1727255;81;21059;-85
2021/06/06 07:12:13;;;;;;;5.25;2.95;;;;;;;16.61;75.26;99908.50;1724667;81;21002;-85
2021/06/06 07:14:44;;;;;;;9.58;3.35;;;;;;;16.54;76.17;99908.92;1734806;82;21201;-84
2021/06/06 07:17:13;;;;;;;6.20;3.33;;;;;;;16.49;75.92;99903.02;1739916;81;21089;-83
2021/06/06 07:19:40;;;;;;;6.75;2.80;;;;;;;16.47;75.84;99901.42;1731161;81;21524;-84
2021/06/06 07:22:08;;;;;;;6.87;2.62;;;;;;;16.43;75.50;99900.78;1734412;81;21031;-82
2021/06/06 07:24:35;;;;;;;7.08;2.72;;;;;;;16.40;74.71;99904.95;1729820;81;20996;-83
2021/06/06 07:27:14;;;;;;;9.95;2.65;;;;;;;16.34;74.18;99901.38;1724431;81;20999;-82
2021/06/06 07:29:50;;;;;;;6.03;2.92;;;;;;;16.35;74.51;99897.76;1714105;81;21627;-82
2021/06/06 07:32:27;;;;;;;10.13;2.70;;;;;;;16.39;74.76;99897.95;1733605;81;21031;-81
2021/06/06 07:34:54;;;;;;;15.63;2.50;;;;;;;16.47;75.04;99896.98;1723204;82;21007;-83
2021/06/06 07:37:21;;;;;;;9.78;2.42;;;;;;;16.56;74.41;99904.80;1731416;81;20997;-81
2021/06/06 07:39:50;;;;;;;5.17;2.52;;;;;;;16.63;74.09;99907.44;1702626;82;21030;-82
2021/06/06 07:42:23;;;;;;;7.28;2.60;;;;;;;16.69;73.74;99911.52;1725111;82;21141;-81
2021/06/06 07:44:51;;;;;;;5.30;2.60;;;;;;;16.73;73.04;99910.37;1730092;82;21133;-81
2021/06/06 07:47:18;;;;;;;8.08;2.72;;;;;;;16.76;72.99;99911.00;1725446;81;21636;-76
2021/06/06 07:49:46;;;;;;;6.65;2.47;;;;;;;16.76;72.77;99913.66;1723175;81;21063;-76
2021/06/06 07:52:13;;;;;;;7.22;3.00;;;;;;;16.80;71.92;99906.38;1720594;82;21515;-77
2021/06/06 07:54:41;;;;;;;7.55;2.80;;;;;;;16.85;71.67;99910.06;1719880;82;21205;-76
2021/06/06 07:57:08;;;;;;;9.43;2.50;;;;;;;16.86;70.80;99911.27;1736927;81;22204;-78
2021/06/06 07:59:37;;;;;;;8.60;2.95;;;;;;;16.91;71.68;99915.83;1723004;81;21049;-80
2021/06/06 08:02:05;;;;;;;8.93;3.35;;;;;;;16.95;71.94;99910.66;1709697;82;21007;-81
2021/06/06 08:04:36;;;;;;;6.97;3.02;;;;;;;17.05;71.39;99915.39;1727985;81;21146;-80
2021/06/06 08:07:03;;;;;;;5.90;2.98;;;;;;;17.12;72.03;99914.02;1726362;82;21357;-81
2021/06/06 08:09:30;;;;;;;4.90;2.72;;;;;;;17.17;72.51;99911.89;1720779;81;21104;-80
2021/06/06 08:11:59;;;;;;;4.35;2.70;;;;;;;17.19;72.30;99909.97;1733558;81;21627;-80
2021/06/06 08:14:27;;;;;;;8.35;2.95;;;;;;;17.20;72.82;99915.66;1715483;82;21003;-81
2021/06/06 08:16:54;;;;;;;4.92;2.98;;;;;;;17.23;72.36;99911.48;1727219;81;21033;-81
2021/06/06 08:19:22;;;;;;;6.22;3.50;;;;;;;17.26;73.55;99913.92;1725464;81;21972;-81
2021/06/06 08:21:49;;;;;;;8.40;3.90;;;;;;;17.26;74.18;99920.58;1729674;81;21066;-82
2021/06/06 08:24:17;;;;;;;6.60;4.33;;;;;;;17.27;74.85;99912.95;1733206;81;21115;-80
2021/06/06 08:26:47;;;;;;;10.55;4.72;;;;;;;17.30;75.04;99916.75;1723653;81;21669;-78
2021/06/06 08:29:15;;;;;;;13.48;4.58;;;;;;;17.33;76.10;99909.87;1745901;81;20996;-82
2021/06/06 08:31:44;;;;;;;9.53;4.72;;;;;;;17.33;74.64;99908.55;1684324;84;21134;-80
2021/06/06 08:34:11;;;;;;;9.28;3.87;;;;;;;17.31;74.23;99910.94;1730070;81;20955;-82
2021/06/06 08:36:45;;;;;;;8.45;4.45;;;;;;;17.26;72.45;99915.25;1732185;80;21035;-80
2021/06/06 08:39:21;;;;;;;11.50;4.58;;;;;;;17.22;72.65;99908.91;1732887;81;21950;-81
2021/06/06 08:42:02;;;;;;;19.87;13.45;;;;;;;17.17;72.96;99915.88;1738798;81;21063;-82
2021/06/06 08:44:33;;;;;;;13.65;9.40;;;;;;;17.12;73.48;99921.99;1723064;82;21179;-82
2021/06/06 08:47:16;;;;;;;11.18;7.55;;;;;;;17.08;73.63;99921.82;1735021;81;20981;-81
2021/06/06 08:49:59;;;;;;;8.78;4.25;;;;;;;17.05;74.70;99922.03;1724772;81;21035;-77
2021/06/06 08:52:43;;;;;;;8.28;3.95;;;;;;;17.02;73.20;99922.22;1727293;81;21102;-75
2021/06/06 08:56:00;;;;;;;13.93;5.25;;;;;;;16.97;75.23;99920.72;1727634;81;21097;-76
2021/06/06 08:59:11;;;;;;;7.97;4.70;;;;;;;16.93;76.62;99920.57;1738174;81;21161;-76
2021/06/06 09:02:05;;;;;;;7.72;3.80;;;;;;;16.89;77.09;99919.06;1727364;81;21173;-76
2021/06/06 09:04:34;;;;;;;10.53;4.10;;;;;;;16.84;78.19;99921.19;1668965;83;21140;-79
2021/06/06 09:07:21;;;;;;;8.30;4.15;;;;;;;16.79;78.22;99916.62;1735861;80;22205;-80
2021/06/06 09:09:50;;;;;;;9.60;4.60;;;;;;;16.83;79.16;99922.12;1730404;81;21137;-79
2021/06/06 09:12:22;;;;;;;9.33;3.52;;;;;;;16.90;80.27;99918.09;1739717;81;22085;-81
2021/06/06 09:14:51;;;;;;;7.10;3.45;;;;;;;16.90;79.81;99912.77;1737452;81;21035;-79
2021/06/06 09:17:20;;;;;;;6.50;3.77;;;;;;;16.88;79.74;99914.68;1738328;81;21071;-78
2021/06/06 09:19:52;;;;;;;11.73;3.80;;;;;;;16.90;79.66;99908.78;1738172;81;21277;-76
2021/06/06 09:22:41;;;;;;;12.80;4.00;;;;;;;16.93;79.25;99906.39;1737181;81;21352;-79
2021/06/06 09:25:33;;;;;;;10.30;4.58;;;;;;;16.98;79.50;99905.63;1728060;81;21281;-76
2021/06/06 09:28:20;;;;;;;9.88;4.20;;;;;;;17.05;79.79;99903.41;1728571;81;21107;-77
2021/06/06 09:31:04;;;;;;;10.13;4.72;;;;;;;17.09;79.58;99898.23;1723693;81;21074;-77
2021/06/06 09:33:44;;;;;;;9.90;5.15;;;;;;;17.17;79.43;99894.10;1729112;81;21175;-81
2021/06/06 09:36:38;;;;;;;8.55;4.42;;;;;;;17.27;78.25;99894.80;1728641;81;21067;-79
2021/06/06 09:39:20;;;;;;;10.78;5.33;;;;;;;17.38;78.55;99897.09;1724642;81;21145;-80
2021/06/06 09:41:56;;;;;;;9.70;5.65;;;;;;;17.53;79.27;99887.67;1719739;82;21094;-79
2021/06/06 09:44:30;;;;;;;9.43;4.45;;;;;;;17.70;76.76;99880.69;1716426;81;21013;-80
2021/06/06 09:47:11;;;;;;;7.95;4.58;;;;;;;17.77;74.35;99885.95;1721482;81;21114;-81
2021/06/06 09:49:45;;;;;;;9.08;4.37;;;;;;;17.85;75.96;99879.26;1681374;83;21090;-80
2021/06/06 09:52:45;;;;;;;9.88;4.62;;;;;;;18.01;73.14;99878.52;1724071;81;21951;-81
2021/06/06 09:55:26;;;;;;;13.55;4.00;;;;;;;18.15;71.93;99881.07;1729862;81;21071;-79
2021/06/06 09:58:10;;;;;;;7.83;3.27;;;;;;;18.36;72.43;99883.14;1708170;82;21083;-81
2021/06/06 10:00:49;;;;;;;5.75;2.60;;;;;;;18.56;69.62;99877.16;1718666;81;21095;-80
2021/06/06 10:03:25;;;;;;;6.22;2.77;;;;;;;18.82;68.82;99879.75;1731166;82;21134;-79
2021/06/06 10:05:56;;;;;;;6.20;3.25;;;;;;;19.17;66.38;99877.55;1721598;82;21118;-82
2021/06/06 10:08:27;;;;;;;8.43;3.10;;;;;;;19.48;63.24;99867.49;1717239;81;21051;-80
2021/06/06 10:11:17;;;;;;;8.33;2.98;;;;;;;19.80;64.38;99870.82;1726331;82;21091;-80
2021/06/06 10:13:47;;;;;;;9.15;2.90;;;;;;;20.06;61.89;99869.21;1717060;82;21594;-78
2021/06/06 10:16:18;;;;;;;5.42;3.08;;;;;;;20.32;62.46;99863.10;1730693;81;21197;-77
2021/06/06 10:19:01;;;;;;;5.42;2.50;;;;;;;20.60;61.53;99855.01;1716080;82;21093;-78
2021/06/06 10:21:32;;;;;;;5.80;3.00;;;;;;;20.91;58.76;99856.44;1727153;81;21047;-80
2021/06/06 10:24:10;;;;;;;6.03;2.90;;;;;;;21.22;57.36;99857.86;1734849;81;21039;-79
2021/06/06 10:26:43;;;;;;;10.43;3.92;;;;;;;21.36;57.36;99853.50;1728887;81;21032;-79
2021/06/06 10:29:26;;;;;;;7.75;3.83;;;;;;;21.45;57.40;99850.05;1729922;81;21173;-79
2021/06/06 10:31:59;;;;;;;5.65;3.15;;;;;;;21.55;56.60;99845.58;1731963;81;21086;-78
2021/06/06 10:35:04;;;;;;;;;;;;;;;21.87;56.09;99844.57;1731510;81;21101;-78
2021/06/06 10:37:31;;;;;;;8.75;3.40;;;;;;;22.26;52.47;99835.31;1719821;80;20509;-80
2021/06/06 10:40:06;;;;;;;7.47;3.25;;;;;;;22.74;51.64;99837.17;1728502;81;21053;-80
2021/06/06 10:42:50;;;;;;;6.30;3.20;;;;;;;23.12;51.68;99826.55;1718863;82;21031;-80
2021/06/06 10:45:49;;;;;;;6.10;2.67;;;;;;;23.46;49.87;99822.34;1717469;82;21105;-81
2021/06/06 10:48:24;;;;;;;8.85;3.72;;;;;;;23.89;45.66;99822.75;1730176;81;21096;-78
2021/06/06 10:51:26;;;;;;;4.40;3.00;;;;;;;24.02;44.95;99819.22;1719593;82;21025;-80
2021/06/06 10:53:56;;;;;;;9.00;3.20;;;;;;;24.01;46.70;99817.51;1724147;82;21037;-81
2021/06/06 10:56:50;;;;;;;8.10;3.10;;;;;;;23.94;44.90;99817.77;1728204;81;21088;-78
2021/06/06 10:59:31;;;;;;;7.00;3.17;;;;;;;24.15;46.09;99805.38;1728800;82;21151;-80
2021/06/06 11:01:58;;;;;;;6.35;3.10;;;;;;;24.41;45.44;99804.15;1731725;81;21075;-79
2021/06/06 11:04:36;;;;;;;6.37;3.45;;;;;;;24.38;44.01;99801.74;1725906;81;21058;-80
2021/06/06 11:07:20;;;;;;;7.90;3.45;;;;;;;24.51;44.10;99792.48;1738446;81;21300;-79
2021/06/06 11:10:20;;;;;;;9.28;3.52;;;;;;;24.50;43.63;99797.00;1728563;81;21081;-81
2021/06/06 11:12:52;;;;;;;6.58;3.62;;;;;;;24.23;43.63;99787.16;1731913;81;21121;-81
2021/06/06 11:15:38;;;;;;;16.40;3.65;;;;;;;23.97;44.81;99787.91;1728546;82;21140;-78
2021/06/06 11:18:20;;;;;;;9.68;4.00;;;;;;;24.00;45.49;99778.68;1723409;82;21570;-80
2021/06/06 11:21:05;;;;;;;7.03;3.42;;;;;;;24.15;44.75;99780.33;1723926;81;21066;-79
2021/06/06 11:23:50;;;;;;;8.85;3.75;;;;;;;24.29;45.04;99770.38;1724547;82;21655;-80
2021/06/06 11:26:35;;;;;;;13.48;3.47;;;;;;;24.51;45.13;99765.57;1718249;82;21118;-79
2021/06/06 11:29:21;;;;;;;8.35;3.00;;;;;;;24.67;43.08;99758.97;1721936;81;21017;-79
2021/06/06 11:32:21;;;;;;;8.13;3.00;;;;;;;24.82;42.22;99758.72;1723683;81;21342;-80
2021/06/06 11:35:18;;;;;;;9.48;3.12;;;;;;;25.09;42.23;99754.19;1737874;82;21163;-80
2021/06/06 11:37:49;;;;;;;4.53;3.08;;;;;;;25.38;40.56;99751.69;1741971;81;21113;-75
2021/06/06 11:40:38;;;;;;;6.28;3.33;;;;;;;25.44;39.73;99755.91;1727840;82;21083;-75
2021/06/06 11:43:38;;;;;;;7.62;3.40;;;;;;;25.42;39.77;99746.30;1719853;82;21570;-75
2021/06/06 11:46:32;;;;;;;7.70;3.52;;;;;;;25.30;40.85;99743.88;1687252;81;21173;-76
2021/06/06 11:49:28;;;;;;;5.12;3.20;;;;;;;25.39;40.00;99744.77;1734226;81;21074;-78
2021/06/06 11:51:57;;;;;;;9.60;3.65;;;;;;;25.40;40.60;99734.83;1729077;81;21154;-79
2021/06/06 11:54:32;;;;;;;8.80;3.10;;;;;;;25.29;40.77;99749.45;1732888;81;21159;-77
2021/06/06 11:57:18;;;;;;;10.48;3.58;;;;;;;25.32;39.57;99736.99;1720922;82;21080;-76
2021/06/06 11:59:53;;;;;;;7.10;3.33;;;;;;;25.43;38.90;99739.91;1722243;81;21193;-78
2021/06/06 12:02:25;;;;;;;9.55;3.35;;;;;;;25.48;39.50;99736.22;1720220;81;21071;-78